sensor_id;sensor_type;location;lat;lon;timestamp;pressure;altitude;pressure_sealevel;temperature;humidity
55315;BME280;41619;42.816;23.226;2023-05-24T00:02:04;95351.84;;;10.16;71.24
55315;BME280;41619;42.816;23.226;2023-05-24T00:04:31;95349.06;;;10.13;71.28
55315;BME280;41619;42.816;23.226;2023-05-24T00:06:56;95346.34;;;10.13;71.39
55315;BME280;41619;42.816;23.226;2023-05-24T00:09:22;95348.28;;;10.12;71.34
55315;BME280;41619;42.816;23.226;2023-05-24T00:11:47;95344.34;;;10.10;71.47
55315;BME280;41619;42.816;23.226;2023-05-24T00:14:13;95341.19;;;10.08;71.23
55315;BME280;41619;42.816;23.226;2023-05-24T00:16:38;95339.50;;;10.03;71.52
55315;BME280;41619;42.816;23.226;2023-05-24T00:19:04;95345.28;;;9.98;71.51
55315;BME280;41619;42.816;23.226;2023-05-24T00:21:29;95337.81;;;9.95;71.73
55315;BME280;41619;42.816;23.226;2023-05-24T00:23:56;95342.50;;;9.94;71.67
55315;BME280;41619;42.816;23.226;2023-05-24T00:26:22;95341.28;;;9.92;71.69
55315;BME280;41619;42.816;23.226;2023-05-24T00:28:47;95349.44;;;9.88;71.72
55315;BME280;41619;42.816;23.226;2023-05-24T00:31:12;95343.09;;;9.84;71.80
55315;BME280;41619;42.816;23.226;2023-05-24T00:33:38;95339.91;;;9.82;71.94
55315;BME280;41619;42.816;23.226;2023-05-24T00:36:03;95348.06;;;9.79;71.92
55315;BME280;41619;42.816;23.226;2023-05-24T00:38:29;95336.28;;;9.75;71.86
55315;BME280;41619;42.816;23.226;2023-05-24T00:40:54;95338.94;;;9.71;72.00
55315;BME280;41619;42.816;23.226;2023-05-24T00:43:25;95338.44;;;9.65;72.04
55315;BME280;41619;42.816;23.226;2023-05-24T00:46:07;95331.34;;;9.61;71.97
55315;BME280;41619;42.816;23.226;2023-05-24T00:48:36;95339.03;;;9.55;72.21
55315;BME280;41619;42.816;23.226;2023-05-24T00:51:01;95333.09;;;9.50;72.19
55315;BME280;41619;42.816;23.226;2023-05-24T00:53:27;95333.00;;;9.46;72.20
55315;BME280;41619;42.816;23.226;2023-05-24T00:55:53;95336.44;;;9.43;72.34
55315;BME280;41619;42.816;23.226;2023-05-24T00:58:20;95340.28;;;9.38;72.36
55315;BME280;41619;42.816;23.226;2023-05-24T01:00:47;95332.81;;;9.35;72.29
55315;BME280;41619;42.816;23.226;2023-05-24T01:03:14;95336.63;;;9.31;72.57
55315;BME280;41619;42.816;23.226;2023-05-24T01:05:39;95335.38;;;9.28;72.37
55315;BME280;41619;42.816;23.226;2023-05-24T01:08:15;95342.34;;;9.26;72.64
55315;BME280;41619;42.816;23.226;2023-05-24T01:13:30;95346.94;;;9.22;72.77
55315;BME280;41619;42.816;23.226;2023-05-24T01:16:51;95353.13;;;9.19;72.59
55315;BME280;41619;42.816;23.226;2023-05-24T01:22:00;95346.81;;;9.15;72.62
55315;BME280;41619;42.816;23.226;2023-05-24T01:24:58;95343.66;;;9.13;72.63
55315;BME280;41619;42.816;23.226;2023-05-24T01:27:29;95342.41;;;9.10;72.87
55315;BME280;41619;42.816;23.226;2023-05-24T01:29:56;95343.56;;;9.09;72.53
55315;BME280;41619;42.816;23.226;2023-05-24T01:32:22;95337.31;;;9.08;72.67
55315;BME280;41619;42.816;23.226;2023-05-24T01:34:48;95347.06;;;9.09;72.90
55315;BME280;41619;42.816;23.226;2023-05-24T01:37:13;95343.19;;;9.10;72.63
55315;BME280;41619;42.816;23.226;2023-05-24T01:39:39;95347.88;;;9.10;72.69
55315;BME280;41619;42.816;23.226;2023-05-24T01:45:09;95343.56;;;9.09;73.09
55315;BME280;41619;42.816;23.226;2023-05-24T01:51:00;95331.06;;;9.08;72.84
55315;BME280;41619;42.816;23.226;2023-05-24T01:53:32;95340.81;;;9.09;72.98
55315;BME280;41619;42.816;23.226;2023-05-24T01:56:01;95336.88;;;9.06;72.76
55315;BME280;41619;42.816;23.226;2023-05-24T01:58:28;95343.50;;;9.05;72.78
55315;BME280;41619;42.816;23.226;2023-05-24T02:00:54;95335.28;;;9.05;72.87
55315;BME280;41619;42.816;23.226;2023-05-24T02:03:20;95331.00;;;9.04;73.12
55315;BME280;41619;42.816;23.226;2023-05-24T02:05:45;95336.44;;;9.04;72.77
55315;BME280;41619;42.816;23.226;2023-05-24T02:08:11;95337.16;;;9.01;72.96
55315;BME280;41619;42.816;23.226;2023-05-24T02:10:38;95331.28;;;8.99;73.06
55315;BME280;41619;42.816;23.226;2023-05-24T02:13:04;95333.16;;;8.95;72.94
55315;BME280;41619;42.816;23.226;2023-05-24T02:15:30;95330.69;;;8.90;72.98
55315;BME280;41619;42.816;23.226;2023-05-24T02:17:56;95340.72;;;8.86;73.11
55315;BME280;41619;42.816;23.226;2023-05-24T02:20:21;95341.38;;;8.79;72.94
55315;BME280;41619;42.816;23.226;2023-05-24T02:22:48;95335.41;;;8.74;73.52
55315;BME280;41619;42.816;23.226;2023-05-24T02:25:13;95339.97;;;8.70;73.47
55315;BME280;41619;42.816;23.226;2023-05-24T02:27:39;95337.59;;;8.68;73.10
55315;BME280;41619;42.816;23.226;2023-05-24T02:30:06;95329.41;;;8.68;73.27
55315;BME280;41619;42.816;23.226;2023-05-24T02:32:32;95339.53;;;8.68;73.34
55315;BME280;41619;42.816;23.226;2023-05-24T02:34:59;95333.59;;;8.62;73.11
55315;BME280;41619;42.816;23.226;2023-05-24T02:37:26;95336.66;;;8.61;73.48
55315;BME280;41619;42.816;23.226;2023-05-24T02:39:52;95337.47;;;8.61;73.25
55315;BME280;41619;42.816;23.226;2023-05-24T02:42:17;95337.81;;;8.60;73.32
55315;BME280;41619;42.816;23.226;2023-05-24T02:44:43;95337.63;;;8.53;73.36
55315;BME280;41619;42.816;23.226;2023-05-24T02:47:11;95350.06;;;8.50;73.69
55315;BME280;41619;42.816;23.226;2023-05-24T02:49:37;95350.06;;;8.50;73.72
55315;BME280;41619;42.816;23.226;2023-05-24T02:52:02;95347.31;;;8.50;73.51
55315;BME280;41619;42.816;23.226;2023-05-24T02:54:28;95341.44;;;8.48;73.80
55315;BME280;41619;42.816;23.226;2023-05-24T02:56:53;95348.03;;;8.47;74.11
55315;BME280;41619;42.816;23.226;2023-05-24T02:59:21;95344.53;;;8.46;74.26
55315;BME280;41619;42.816;23.226;2023-05-24T03:01:46;95349.09;;;8.42;73.72
55315;BME280;41619;42.816;23.226;2023-05-24T03:04:11;95347.44;;;8.38;74.05
55315;BME280;41619;42.816;23.226;2023-05-24T03:06:37;95355.63;;;8.38;74.02
55315;BME280;41619;42.816;23.226;2023-05-24T03:09:02;95349.47;;;8.41;74.01
55315;BME280;41619;42.816;23.226;2023-05-24T03:11:28;95355.34;;;8.43;74.45
55315;BME280;41619;42.816;23.226;2023-05-24T03:13:53;95363.53;;;8.43;74.42
55315;BME280;41619;42.816;23.226;2023-05-24T03:16:18;95363.97;;;8.45;74.68
55315;BME280;41619;42.816;23.226;2023-05-24T03:18:45;95358.16;;;8.46;74.47
55315;BME280;41619;42.816;23.226;2023-05-24T03:21:10;95358.16;;;8.46;74.69
55315;BME280;41619;42.816;23.226;2023-05-24T03:23:36;95355.06;;;8.48;74.84
55315;BME280;41619;42.816;23.226;2023-05-24T03:26:01;95358.22;;;8.50;74.24
55315;BME280;41619;42.816;23.226;2023-05-24T03:28:27;95363.31;;;8.52;74.68
55315;BME280;41619;42.816;23.226;2023-05-24T03:30:52;95364.56;;;8.54;74.29
55315;BME280;41619;42.816;23.226;2023-05-24T03:33:18;95371.59;;;8.55;74.41
55315;BME280;41619;42.816;23.226;2023-05-24T03:35:43;95370.00;;;8.54;74.29
55315;BME280;41619;42.816;23.226;2023-05-24T03:38:09;95370.66;;;8.47;74.08
55315;BME280;41619;42.816;23.226;2023-05-24T03:40:34;95368.28;;;8.46;74.57
55315;BME280;41619;42.816;23.226;2023-05-24T03:43:00;95369.41;;;8.45;74.20
55315;BME280;41619;42.816;23.226;2023-05-24T03:45:26;95374.09;;;8.44;74.47
55315;BME280;41619;42.816;23.226;2023-05-24T03:47:51;95380.31;;;8.45;74.29
55315;BME280;41619;42.816;23.226;2023-05-24T03:50:17;95381.47;;;8.44;74.32
55315;BME280;41619;42.816;23.226;2023-05-24T03:52:42;95381.56;;;8.47;74.16
55315;BME280;41619;42.816;23.226;2023-05-24T03:55:07;95381.63;;;8.51;74.47
55315;BME280;41619;42.816;23.226;2023-05-24T03:57:33;95384.78;;;8.53;74.52
55315;BME280;41619;42.816;23.226;2023-05-24T03:59:58;95387.63;;;8.57;74.36
55315;BME280;41619;42.816;23.226;2023-05-24T04:02:25;95383.41;;;8.59;73.96
55315;BME280;41619;42.816;23.226;2023-05-24T04:04:50;95381.53;;;8.63;74.73
55315;BME280;41619;42.816;23.226;2023-05-24T04:07:16;95384.78;;;8.69;74.11
55315;BME280;41619;42.816;23.226;2023-05-24T04:09:41;95386.91;;;8.75;74.29
55315;BME280;41619;42.816;23.226;2023-05-24T04:12:07;95387.78;;;8.79;74.56
55315;BME280;41619;42.816;23.226;2023-05-24T04:14:33;95384.84;;;8.88;74.28
55315;BME280;41619;42.816;23.226;2023-05-24T04:16:59;95389.25;;;8.93;74.23
55315;BME280;41619;42.816;23.226;2023-05-24T04:19:26;95389.75;;;8.98;74.50
55315;BME280;41619;42.816;23.226;2023-05-24T04:21:51;95386.38;;;9.05;74.40
55315;BME280;41619;42.816;23.226;2023-05-24T04:24:17;95385.75;;;9.12;74.17
55315;BME280;41619;42.816;23.226;2023-05-24T04:26:42;95386.25;;;9.17;74.40
55315;BME280;41619;42.816;23.226;2023-05-24T04:29:08;95382.09;;;9.23;74.57
55315;BME280;41619;42.816;23.226;2023-05-24T04:31:34;95392.72;;;9.28;74.36
55315;BME280;41619;42.816;23.226;2023-05-24T04:34:00;95390.94;;;9.36;74.31
55315;BME280;41619;42.816;23.226;2023-05-24T04:36:26;95387.19;;;9.44;74.19
55315;BME280;41619;42.816;23.226;2023-05-24T04:38:52;95378.38;;;9.51;73.99
55315;BME280;41619;42.816;23.226;2023-05-24T04:41:20;95383.25;;;9.61;73.92
55315;BME280;41619;42.816;23.226;2023-05-24T04:43:46;95383.84;;;9.70;74.20
55315;BME280;41619;42.816;23.226;2023-05-24T04:46:12;95390.63;;;9.80;73.90
55315;BME280;41619;42.816;23.226;2023-05-24T04:48:37;95385.38;;;9.90;73.84
55315;BME280;41619;42.816;23.226;2023-05-24T04:51:02;95393.78;;;10.01;73.94
55315;BME280;41619;42.816;23.226;2023-05-24T04:53:28;95395.56;;;10.13;73.80
55315;BME280;41619;42.816;23.226;2023-05-24T04:55:54;95401.25;;;10.23;73.47
55315;BME280;41619;42.816;23.226;2023-05-24T04:58:20;95397.91;;;10.34;73.45
55315;BME280;41619;42.816;23.226;2023-05-24T05:00:45;95405.50;;;10.44;73.38
55315;BME280;41619;42.816;23.226;2023-05-24T05:03:11;95410.34;;;10.54;73.39
55315;BME280;41619;42.816;23.226;2023-05-24T05:05:36;95408.97;;;10.64;73.41
55315;BME280;41619;42.816;23.226;2023-05-24T05:08:02;95410.69;;;10.75;73.31
55315;BME280;41619;42.816;23.226;2023-05-24T05:10:28;95410.50;;;10.87;72.90
55315;BME280;41619;42.816;23.226;2023-05-24T05:12:53;95401.31;;;10.99;72.70
55315;BME280;41619;42.816;23.226;2023-05-24T05:15:21;95405.75;;;11.11;72.74
55315;BME280;41619;42.816;23.226;2023-05-24T05:17:47;95401.59;;;11.20;72.69
55315;BME280;41619;42.816;23.226;2023-05-24T05:20:12;95407.28;;;11.35;72.40
55315;BME280;41619;42.816;23.226;2023-05-24T05:22:38;95402.34;;;11.47;72.34
55315;BME280;41619;42.816;23.226;2023-05-24T05:25:04;95407.19;;;11.58;72.08
55315;BME280;41619;42.816;23.226;2023-05-24T05:27:29;95407.72;;;11.70;71.89
55315;BME280;41619;42.816;23.226;2023-05-24T05:29:54;95413.00;;;11.82;71.52
55315;BME280;41619;42.816;23.226;2023-05-24T05:32:20;95408.03;;;11.92;71.70
55315;BME280;41619;42.816;23.226;2023-05-24T05:34:45;95406.97;;;12.03;71.67
55315;BME280;41619;42.816;23.226;2023-05-24T05:37:11;95406.34;;;12.17;71.45
55315;BME280;41619;42.816;23.226;2023-05-24T05:39:36;95408.03;;;12.29;71.37
55315;BME280;41619;42.816;23.226;2023-05-24T05:42:01;95410.06;;;12.39;71.27
55315;BME280;41619;42.816;23.226;2023-05-24T05:44:27;95407.84;;;12.52;70.72
55315;BME280;41619;42.816;23.226;2023-05-24T05:46:52;95412.22;;;12.60;70.56
55315;BME280;41619;42.816;23.226;2023-05-24T05:49:18;95411.13;;;12.68;70.57
55315;BME280;41619;42.816;23.226;2023-05-24T05:51:44;95421.00;;;12.80;70.69
55315;BME280;41619;42.816;23.226;2023-05-24T05:54:10;95419.56;;;12.93;70.22
55315;BME280;41619;42.816;23.226;2023-05-24T05:56:40;95419.25;;;13.01;69.88
55315;BME280;41619;42.816;23.226;2023-05-24T05:59:10;95421.66;;;13.10;69.56
55315;BME280;41619;42.816;23.226;2023-05-24T06:01:36;95413.88;;;13.19;69.39
55315;BME280;41619;42.816;23.226;2023-05-24T06:04:01;95419.06;;;13.31;69.45
55315;BME280;41619;42.816;23.226;2023-05-24T06:06:27;95421.13;;;13.45;69.54
55315;BME280;41619;42.816;23.226;2023-05-24T06:08:52;95419.63;;;13.58;69.40
55315;BME280;41619;42.816;23.226;2023-05-24T06:11:17;95420.44;;;13.70;69.18
55315;BME280;41619;42.816;23.226;2023-05-24T06:13:43;95418.16;;;13.79;68.67
55315;BME280;41619;42.816;23.226;2023-05-24T06:16:08;95412.66;;;13.86;68.21
55315;BME280;41619;42.816;23.226;2023-05-24T06:18:34;95419.81;;;14.01;68.22
55315;BME280;41619;42.816;23.226;2023-05-24T06:21:00;95418.28;;;14.14;68.29
55315;BME280;41619;42.816;23.226;2023-05-24T06:23:26;95421.09;;;14.32;68.08
55315;BME280;41619;42.816;23.226;2023-05-24T06:25:51;95419.16;;;14.43;67.59
55315;BME280;41619;42.816;23.226;2023-05-24T06:28:17;95418.38;;;14.50;67.47
55315;BME280;41619;42.816;23.226;2023-05-24T06:30:42;95419.97;;;14.65;67.37
55315;BME280;41619;42.816;23.226;2023-05-24T06:33:07;95417.22;;;14.79;67.03
55315;BME280;41619;42.816;23.226;2023-05-24T06:35:33;95421.94;;;14.86;66.47
55315;BME280;41619;42.816;23.226;2023-05-24T06:37:58;95421.16;;;14.93;66.49
55315;BME280;41619;42.816;23.226;2023-05-24T06:40:24;95417.22;;;15.01;66.39
55315;BME280;41619;42.816;23.226;2023-05-24T06:42:49;95421.94;;;15.11;66.55
55315;BME280;41619;42.816;23.226;2023-05-24T06:45:14;95416.03;;;15.20;65.79
55315;BME280;41619;42.816;23.226;2023-05-24T06:47:40;95422.34;;;15.27;65.59
55315;BME280;41619;42.816;23.226;2023-05-24T06:50:06;95417.16;;;15.40;65.31
55315;BME280;41619;42.816;23.226;2023-05-24T06:52:32;95410.03;;;15.57;65.42
55315;BME280;41619;42.816;23.226;2023-05-24T06:54:57;95420.66;;;15.72;64.95
55315;BME280;41619;42.816;23.226;2023-05-24T06:57:23;95407.25;;;15.78;64.30
55315;BME280;41619;42.816;23.226;2023-05-24T06:59:49;95413.16;;;15.84;64.35
55315;BME280;41619;42.816;23.226;2023-05-24T07:02:15;95407.97;;;15.93;63.93
55315;BME280;41619;42.816;23.226;2023-05-24T07:04:41;95407.53;;;16.09;63.89
55315;BME280;41619;42.816;23.226;2023-05-24T07:07:07;95407.06;;;16.24;63.63
55315;BME280;41619;42.816;23.226;2023-05-24T07:09:33;95403.84;;;16.33;63.30
55315;BME280;41619;42.816;23.226;2023-05-24T07:11:58;95399.44;;;16.46;63.00
55315;BME280;41619;42.816;23.226;2023-05-24T07:14:24;95401.31;;;16.60;62.86
55315;BME280;41619;42.816;23.226;2023-05-24T07:16:51;95399.66;;;16.73;62.79
55315;BME280;41619;42.816;23.226;2023-05-24T07:19:19;95397.56;;;16.88;62.49
55315;BME280;41619;42.816;23.226;2023-05-24T07:21:46;95395.84;;;17.05;62.33
55315;BME280;41619;42.816;23.226;2023-05-24T07:24:11;95398.47;;;17.22;62.23
55315;BME280;41619;42.816;23.226;2023-05-24T07:26:37;95395.53;;;17.40;61.98
55315;BME280;41619;42.816;23.226;2023-05-24T07:29:02;95400.50;;;17.56;61.71
55315;BME280;41619;42.816;23.226;2023-05-24T07:31:28;95401.53;;;17.73;61.08
55315;BME280;41619;42.816;23.226;2023-05-24T07:33:55;95397.03;;;17.86;60.66
55315;BME280;41619;42.816;23.226;2023-05-24T07:36:20;95396.06;;;18.00;60.20
55315;BME280;41619;42.816;23.226;2023-05-24T07:38:46;95395.91;;;18.14;59.81
55315;BME280;41619;42.816;23.226;2023-05-24T07:41:12;95400.06;;;18.29;59.62
55315;BME280;41619;42.816;23.226;2023-05-24T07:43:38;95400.97;;;18.50;59.09
55315;BME280;41619;42.816;23.226;2023-05-24T07:46:03;95398.00;;;18.64;58.74
55315;BME280;41619;42.816;23.226;2023-05-24T07:48:29;95395.13;;;18.71;58.18
55315;BME280;41619;42.816;23.226;2023-05-24T07:50:54;95399.72;;;18.81;57.62
55315;BME280;41619;42.816;23.226;2023-05-24T07:53:20;95396.00;;;18.91;56.88
55315;BME280;41619;42.816;23.226;2023-05-24T07:55:47;95384.63;;;19.09;56.93
55315;BME280;41619;42.816;23.226;2023-05-24T07:58:12;95389.06;;;19.26;56.73
55315;BME280;41619;42.816;23.226;2023-05-24T08:00:38;95385.97;;;19.44;56.80
55315;BME280;41619;42.816;23.226;2023-05-24T08:03:04;95392.81;;;19.63;56.36
55315;BME280;41619;42.816;23.226;2023-05-24T08:05:30;95391.34;;;19.78;55.91
55315;BME280;41619;42.816;23.226;2023-05-24T08:07:56;95392.31;;;19.88;55.07
55315;BME280;41619;42.816;23.226;2023-05-24T08:10:21;95380.78;;;20.09;54.64
55315;BME280;41619;42.816;23.226;2023-05-24T08:12:47;95384.25;;;20.33;54.52
55315;BME280;41619;42.816;23.226;2023-05-24T08:15:15;95385.81;;;20.54;54.43
55315;BME280;41619;42.816;23.226;2023-05-24T08:17:41;95381.06;;;20.71;54.01
55315;BME280;41619;42.816;23.226;2023-05-24T08:20:07;95371.50;;;20.88;53.28
55315;BME280;41619;42.816;23.226;2023-05-24T08:22:34;95370.38;;;21.02;53.03
55315;BME280;41619;42.816;23.226;2023-05-24T08:24:59;95367.56;;;21.18;53.04
55315;BME280;41619;42.816;23.226;2023-05-24T08:27:25;95370.81;;;21.33;53.03
55315;BME280;41619;42.816;23.226;2023-05-24T08:29:53;95372.78;;;21.49;52.92
55315;BME280;41619;42.816;23.226;2023-05-24T08:32:18;95370.84;;;21.62;52.86
55315;BME280;41619;42.816;23.226;2023-05-24T08:34:44;95370.81;;;21.78;52.02
55315;BME280;41619;42.816;23.226;2023-05-24T08:37:09;95369.09;;;21.97;50.34
55315;BME280;41619;42.816;23.226;2023-05-24T08:39:35;95368.16;;;22.16;49.08
55315;BME280;41619;42.816;23.226;2023-05-24T08:42:01;95375.78;;;22.41;48.60
55315;BME280;41619;42.816;23.226;2023-05-24T08:44:28;95371.13;;;22.63;47.90
55315;BME280;41619;42.816;23.226;2023-05-24T08:46:54;95368.00;;;22.74;47.16
55315;BME280;41619;42.816;23.226;2023-05-24T08:49:20;95367.88;;;22.78;46.99
55315;BME280;41619;42.816;23.226;2023-05-24T08:51:46;95364.09;;;22.84;46.11
55315;BME280;41619;42.816;23.226;2023-05-24T08:54:12;95359.31;;;22.98;45.95
55315;BME280;41619;42.816;23.226;2023-05-24T08:56:39;95357.03;;;23.18;44.78
55315;BME280;41619;42.816;23.226;2023-05-24T08:59:05;95353.00;;;23.32;44.36
55315;BME280;41619;42.816;23.226;2023-05-24T09:01:31;95352.66;;;23.30;43.00
55315;BME280;41619;42.816;23.226;2023-05-24T09:03:58;95357.25;;;23.23;42.61
55315;BME280;41619;42.816;23.226;2023-05-24T09:06:25;95347.75;;;23.21;42.42
55315;BME280;41619;42.816;23.226;2023-05-24T09:08:51;95346.53;;;23.22;42.82
55315;BME280;41619;42.816;23.226;2023-05-24T09:11:18;95355.13;;;23.27;42.38
55315;BME280;41619;42.816;23.226;2023-05-24T09:13:46;95349.94;;;23.39;42.39
55315;BME280;41619;42.816;23.226;2023-05-24T09:16:12;95344.09;;;23.59;41.91
55315;BME280;41619;42.816;23.226;2023-05-24T09:18:39;95338.34;;;23.75;42.73
55315;BME280;41619;42.816;23.226;2023-05-24T09:21:07;95343.22;;;23.83;42.44
55315;BME280;41619;42.816;23.226;2023-05-24T09:23:33;95345.44;;;23.89;43.15
55315;BME280;41619;42.816;23.226;2023-05-24T09:26:05;95350.25;;;23.88;42.74
55315;BME280;41619;42.816;23.226;2023-05-24T09:28:31;95346.53;;;23.91;41.40
55315;BME280;41619;42.816;23.226;2023-05-24T09:30:59;95339.19;;;24.06;39.74
55315;BME280;41619;42.816;23.226;2023-05-24T09:33:29;95336.13;;;24.13;39.28
55315;BME280;41619;42.816;23.226;2023-05-24T09:35:57;95331.75;;;24.34;39.19
55315;BME280;41619;42.816;23.226;2023-05-24T09:38:23;95342.28;;;24.52;38.90
55315;BME280;41619;42.816;23.226;2023-05-24T09:41:06;95341.69;;;24.57;37.77
55315;BME280;41619;42.816;23.226;2023-05-24T09:43:33;95336.91;;;24.67;37.64
55315;BME280;41619;42.816;23.226;2023-05-24T09:46:03;95334.16;;;24.76;37.13
55315;BME280;41619;42.816;23.226;2023-05-24T09:48:29;95337.91;;;24.82;36.78
55315;BME280;41619;42.816;23.226;2023-05-24T09:51:07;95326.38;;;24.80;36.28
55315;BME280;41619;42.816;23.226;2023-05-24T09:53:37;95327.00;;;24.84;36.06
55315;BME280;41619;42.816;23.226;2023-05-24T09:56:04;95330.59;;;24.85;35.30
55315;BME280;41619;42.816;23.226;2023-05-24T09:58:30;95332.16;;;24.86;34.62
55315;BME280;41619;42.816;23.226;2023-05-24T10:01:05;95322.28;;;24.72;35.07
55315;BME280;41619;42.816;23.226;2023-05-24T10:03:32;95319.66;;;24.68;36.24
55315;BME280;41619;42.816;23.226;2023-05-24T10:05:58;95329.34;;;24.76;35.75
55315;BME280;41619;42.816;23.226;2023-05-24T10:08:24;95325.94;;;24.91;34.89
55315;BME280;41619;42.816;23.226;2023-05-24T10:10:50;95323.38;;;25.05;35.13
55315;BME280;41619;42.816;23.226;2023-05-24T10:13:16;95322.47;;;25.18;34.24
55315;BME280;41619;42.816;23.226;2023-05-24T10:15:43;95314.06;;;25.27;34.77
55315;BME280;41619;42.816;23.226;2023-05-24T10:18:09;95314.88;;;25.46;34.14
55315;BME280;41619;42.816;23.226;2023-05-24T10:20:35;95308.66;;;25.60;34.45
55315;BME280;41619;42.816;23.226;2023-05-24T10:23:03;95311.03;;;25.71;33.63
55315;BME280;41619;42.816;23.226;2023-05-24T10:25:32;95309.31;;;25.73;34.21
55315;BME280;41619;42.816;23.226;2023-05-24T10:28:07;95315.53;;;25.86;33.79
55315;BME280;41619;42.816;23.226;2023-05-24T10:31:00;95311.78;;;25.80;33.16
55315;BME280;41619;42.816;23.226;2023-05-24T10:33:28;95305.91;;;25.69;33.57
55315;BME280;41619;42.816;23.226;2023-05-24T10:35:55;95309.00;;;25.71;33.68
55315;BME280;41619;42.816;23.226;2023-05-24T10:38:22;95307.91;;;25.69;32.71
55315;BME280;41619;42.816;23.226;2023-05-24T10:40:48;95298.53;;;25.53;33.19
55315;BME280;41619;42.816;23.226;2023-05-24T10:43:15;95302.28;;;25.59;33.48
55315;BME280;41619;42.816;23.226;2023-05-24T10:45:41;95299.34;;;25.72;33.14
55315;BME280;41619;42.816;23.226;2023-05-24T10:50:39;95284.69;;;25.95;33.13
55315;BME280;41619;42.816;23.226;2023-05-24T10:53:12;95294.00;;;26.02;32.39
55315;BME280;41619;42.816;23.226;2023-05-24T10:55:57;95284.28;;;26.21;33.09
55315;BME280;41619;42.816;23.226;2023-05-24T11:01:29;95284.72;;;26.47;33.08
55315;BME280;41619;42.816;23.226;2023-05-24T11:04:14;95270.81;;;26.52;31.43
55315;BME280;41619;42.816;23.226;2023-05-24T11:09:17;95275.34;;;26.59;32.19
55315;BME280;41619;42.816;23.226;2023-05-24T11:11:46;95275.00;;;26.57;32.30
55315;BME280;41619;42.816;23.226;2023-05-24T11:14:13;95274.72;;;26.55;32.77
55315;BME280;41619;42.816;23.226;2023-05-24T11:16:44;95266.50;;;26.42;32.45
55315;BME280;41619;42.816;23.226;2023-05-24T11:21:42;95275.09;;;26.20;32.74
55315;BME280;41619;42.816;23.226;2023-05-24T11:24:08;95271.53;;;26.20;32.12
55315;BME280;41619;42.816;23.226;2023-05-24T11:26:34;95273.13;;;26.12;32.82
55315;BME280;41619;42.816;23.226;2023-05-24T11:29:00;95265.19;;;26.01;32.78
55315;BME280;41619;42.816;23.226;2023-05-24T11:31:26;95265.53;;;25.94;33.11
55315;BME280;41619;42.816;23.226;2023-05-24T11:33:52;95265.69;;;25.90;33.31
55315;BME280;41619;42.816;23.226;2023-05-24T11:36:18;95266.00;;;25.83;33.90
55315;BME280;41619;42.816;23.226;2023-05-24T11:38:48;95259.31;;;25.81;34.45
55315;BME280;41619;42.816;23.226;2023-05-24T11:41:14;95255.72;;;25.89;34.24
55315;BME280;41619;42.816;23.226;2023-05-24T11:43:39;95261.59;;;26.01;34.26
55315;BME280;41619;42.816;23.226;2023-05-24T11:46:06;95256.72;;;26.19;34.31
55315;BME280;41619;42.816;23.226;2023-05-24T11:48:32;95255.31;;;26.24;34.57
55315;BME280;41619;42.816;23.226;2023-05-24T11:50:57;95257.34;;;26.23;34.66
55315;BME280;41619;42.816;23.226;2023-05-24T11:53:24;95243.66;;;26.16;34.73
55315;BME280;41619;42.816;23.226;2023-05-24T11:55:52;95256.72;;;26.19;34.92
55315;BME280;41619;42.816;23.226;2023-05-24T11:58:21;95249.22;;;26.35;34.61
55315;BME280;41619;42.816;23.226;2023-05-24T12:00:47;95247.47;;;26.46;34.07
55315;BME280;41619;42.816;23.226;2023-05-24T12:03:13;95248.09;;;26.74;33.19
55315;BME280;41619;42.816;23.226;2023-05-24T12:05:38;95252.34;;;26.94;32.90
55315;BME280;41619;42.816;23.226;2023-05-24T12:08:07;95246.09;;;26.99;32.68
55315;BME280;41619;42.816;23.226;2023-05-24T12:10:37;95244.41;;;27.01;33.15
55315;BME280;41619;42.816;23.226;2023-05-24T12:13:04;95246.53;;;27.06;33.10
55315;BME280;41619;42.816;23.226;2023-05-24T12:15:30;95237.09;;;27.19;32.71
55315;BME280;41619;42.816;23.226;2023-05-24T12:17:58;95238.72;;;27.34;32.79
55315;BME280;41619;42.816;23.226;2023-05-24T12:20:26;95238.22;;;27.36;31.76
55315;BME280;41619;42.816;23.226;2023-05-24T12:22:53;95243.13;;;27.26;31.69
55315;BME280;41619;42.816;23.226;2023-05-24T12:25:18;95220.44;;;27.15;32.41
55315;BME280;41619;42.816;23.226;2023-05-24T12:27:46;95225.31;;;27.05;32.42
55315;BME280;41619;42.816;23.226;2023-05-24T12:30:16;95209.94;;;26.92;32.30
55315;BME280;41619;42.816;23.226;2023-05-24T12:32:49;95224.69;;;26.77;32.36
55315;BME280;41619;42.816;23.226;2023-05-24T12:35:16;95217.63;;;26.58;32.56
55315;BME280;41619;42.816;23.226;2023-05-24T12:37:42;95215.34;;;26.47;32.86
55315;BME280;41619;42.816;23.226;2023-05-24T12:40:19;95205.25;;;26.32;33.26
55315;BME280;41619;42.816;23.226;2023-05-24T12:42:52;95209.66;;;26.23;33.85
55315;BME280;41619;42.816;23.226;2023-05-24T12:45:19;95208.72;;;26.26;34.40
55315;BME280;41619;42.816;23.226;2023-05-24T12:47:50;95201.81;;;26.37;34.10
55315;BME280;41619;42.816;23.226;2023-05-24T12:50:20;95211.59;;;26.50;34.40
55315;BME280;41619;42.816;23.226;2023-05-24T12:52:47;95211.28;;;26.48;34.43
55315;BME280;41619;42.816;23.226;2023-05-24T12:55:21;95208.06;;;26.41;34.40
55315;BME280;41619;42.816;23.226;2023-05-24T12:57:46;95210.41;;;26.33;34.32
55315;BME280;41619;42.816;23.226;2023-05-24T13:00:18;95209.66;;;26.23;34.32
55315;BME280;41619;42.816;23.226;2023-05-24T13:02:43;95209.22;;;26.16;34.48
55315;BME280;41619;42.816;23.226;2023-05-24T13:05:09;95207.41;;;26.04;35.23
55315;BME280;41619;42.816;23.226;2023-05-24T13:07:35;95199.97;;;25.82;35.77
55315;BME280;41619;42.816;23.226;2023-05-24T13:10:01;95200.31;;;25.66;35.95
55315;BME280;41619;42.816;23.226;2023-05-24T13:12:26;95207.81;;;25.51;36.24
55315;BME280;41619;42.816;23.226;2023-05-24T13:14:52;95204.38;;;25.38;36.41